< < Back
Terminal Aerodrome Forecast


Current Version              Previous Versions:   1  2  3  4  5  6  7  8  9  

Terminal Aerodrome Forecast

058
FTUS42 KCHS 061138
TAFCHS
TAF
KCHS 061138Z 0612/0712 26005KT 5SM BR BKN006
      TEMPO 0612/0613 2SM BR BKN004
     FM061330 26005KT P6SM BKN015
     FM061500 25006KT P6SM FEW035 SCT150
     FM061900 19010KT P6SM VCTS SCT035CB BKN060
     FM062200 19008KT P6SM SCT060 BKN150
     FM070400 25003KT P6SM SCT030 BKN100=

Latest METAR

720
SAUS80 KWBC 070600 RRB
MTRCHS
METAR KCHS 070556Z 20003KT 10SM SCT200 24/22 A3010 RMK AO2 SLP191
T02390222 10272 20239 58001


USA.gov is the U.S. government's official web portal to all federal, state and local government web resources and services.